createdAt,value
2019-05-10T00:01:31.264Z,99641.63
2019-05-10T00:04:17.732Z,99645.91
2019-05-10T00:07:04.239Z,99644.13
2019-05-10T00:09:32.123Z,99641.72
2019-05-10T00:12:02.758Z,99642.73
2019-05-10T00:14:35.581Z,99640.41
2019-05-10T00:17:05.877Z,99651.48
2019-05-10T00:19:34.481Z,99646.66
2019-05-10T00:22:05.808Z,99645.25
2019-05-10T00:24:34.342Z,99647.94
2019-05-10T00:27:05.071Z,99647.00
2019-05-10T00:29:33.679Z,99648.67
2019-05-10T00:32:03.826Z,99652.17
2019-05-10T00:34:35.400Z,99651.55
2019-05-10T00:37:04.438Z,99654.06
2019-05-10T00:39:34.693Z,99653.70
2019-05-10T00:42:06.348Z,99656.78
2019-05-10T00:44:35.106Z,99652.98
2019-05-10T00:47:03.922Z,99661.52
2019-05-10T00:49:35.413Z,99660.88
2019-05-10T00:52:04.114Z,99664.77
2019-05-10T00:54:33.060Z,99661.81
2019-05-10T00:57:04.352Z,99655.30
2019-05-10T00:59:34.617Z,99657.82
2019-05-10T01:02:05.892Z,99659.00
2019-05-10T01:04:34.449Z,99660.03
2019-05-10T01:07:04.653Z,99658.08
2019-05-10T01:09:35.930Z,99662.64
2019-05-10T01:12:04.957Z,99658.73
2019-05-10T01:14:33.792Z,99660.23
2019-05-10T01:17:04.331Z,99663.19
2019-05-10T01:19:34.501Z,99665.52
2019-05-10T01:22:04.826Z,99664.80
2019-05-10T01:24:33.355Z,99667.20
2019-05-10T01:27:01.990Z,99669.63
2019-05-10T01:29:32.557Z,99669.71
2019-05-10T01:32:02.729Z,99661.61
2019-05-10T01:34:32.969Z,99667.39
2019-05-10T01:37:01.588Z,99665.25
2019-05-10T01:39:31.988Z,99668.69
2019-05-10T01:42:01.421Z,99667.56
2019-05-10T01:44:31.873Z,99673.06
2019-05-10T01:47:00.675Z,99672.61
2019-05-10T01:49:29.277Z,99678.94
2019-05-10T01:51:57.814Z,99677.52
2019-05-10T01:54:26.332Z,99683.66
2019-05-10T01:56:54.901Z,99685.31
2019-05-10T01:59:23.510Z,99684.85
2019-05-10T02:01:52.044Z,99682.16
2019-05-10T02:04:20.565Z,99688.58
2019-05-10T02:06:49.171Z,99687.28
2019-05-10T02:09:17.790Z,99686.72
2019-05-10T02:11:46.386Z,99688.39
2019-05-10T02:14:14.916Z,99688.59
2019-05-10T02:16:43.714Z,99692.50
2019-05-10T02:19:12.262Z,99698.08
2019-05-10T02:21:41.082Z,99706.55
2019-05-10T02:24:09.894Z,99701.98
2019-05-10T02:26:38.523Z,99698.91
2019-05-10T02:29:07.060Z,99702.91
2019-05-10T02:31:35.755Z,99705.25
2019-05-10T02:34:04.367Z,99703.39
2019-05-10T02:36:34.450Z,99704.40
2019-05-10T02:39:06.539Z,99714.73
2019-05-10T02:41:35.159Z,99714.91
2019-05-10T02:44:03.687Z,99711.95
2019-05-10T02:46:33.741Z,99712.03
2019-05-10T02:49:03.829Z,99715.77
2019-05-10T02:51:34.023Z,99712.69
2019-05-10T02:54:05.614Z,99712.50
2019-05-10T02:56:34.898Z,99722.37
2019-05-10T02:59:03.862Z,99724.05
2019-05-10T03:01:32.705Z,99720.51
2019-05-10T03:04:03.705Z,99732.23
2019-05-10T03:06:34.412Z,99735.39
2019-05-10T03:09:06.614Z,99734.00
2019-05-10T03:11:46.795Z,99741.28
2019-05-10T03:14:17.620Z,99738.92
2019-05-10T03:16:49.341Z,99748.42
2019-05-10T03:19:20.198Z,99752.23
2019-05-10T03:21:51.780Z,99750.00
2019-05-10T03:24:20.643Z,99750.85
2019-05-10T03:26:51.273Z,99751.52
2019-05-10T03:29:19.565Z,99754.19
2019-05-10T03:31:48.181Z,99753.73
2019-05-10T03:34:17.247Z,99759.41
2019-05-10T03:36:45.783Z,99773.23
2019-05-10T03:39:14.346Z,99771.87
2019-05-10T03:41:43.490Z,99773.41
2019-05-10T03:44:12.186Z,99768.50
2019-05-10T03:46:40.744Z,99762.72
2019-05-10T03:49:09.303Z,99776.67
2019-05-10T03:51:37.854Z,99777.14
2019-05-10T03:54:06.441Z,99788.03
2019-05-10T03:56:35.056Z,99785.45
2019-05-10T03:59:03.675Z,99798.08
2019-05-10T04:01:33.836Z,99798.64
2019-05-10T04:04:09.365Z,99789.99
2019-05-10T04:06:35.874Z,99802.03
2019-05-10T04:09:06.545Z,99804.09
2019-05-10T04:11:35.126Z,99799.72
2019-05-10T04:14:03.969Z,99805.65
2019-05-10T04:16:35.975Z,99805.28
2019-05-10T04:19:04.507Z,99813.27
2019-05-10T04:21:35.815Z,99819.12
2019-05-10T04:24:04.497Z,99820.78
2019-05-10T04:26:36.186Z,99823.63
2019-05-10T04:29:04.902Z,99824.86
2019-05-10T04:31:33.506Z,99831.06
2019-05-10T04:34:02.238Z,99831.27
2019-05-10T04:36:33.835Z,99833.98
2019-05-10T04:39:06.188Z,99840.80
2019-05-10T04:41:34.711Z,99841.45
2019-05-10T04:44:06.368Z,99838.14
2019-05-10T04:46:34.974Z,99838.33
2019-05-10T04:49:03.532Z,99845.05
2019-05-10T04:51:32.067Z,99843.67
2019-05-10T04:54:03.631Z,99849.60
2019-05-10T04:56:33.737Z,99852.50
2019-05-10T04:59:03.894Z,99854.93
2019-05-10T05:01:35.416Z,99858.94
2019-05-10T05:04:04.096Z,99860.21
2019-05-10T05:06:32.723Z,99852.42
2019-05-10T05:09:02.983Z,99856.98
2019-05-10T05:11:31.592Z,99858.09
2019-05-10T05:14:00.196Z,99855.22
2019-05-10T05:16:28.719Z,99867.31
2019-05-10T05:18:57.312Z,99865.75
2019-05-10T05:21:25.929Z,99868.08
2019-05-10T05:23:54.543Z,99874.94
2019-05-10T05:26:23.159Z,99877.74
2019-05-10T05:28:51.982Z,99877.92
2019-05-10T05:31:20.508Z,99886.77
2019-05-10T05:33:49.107Z,99886.32
2019-05-10T05:36:17.723Z,99901.77
2019-05-10T05:38:47.674Z,99895.59
2019-05-10T05:41:16.508Z,99907.81
2019-05-10T05:43:46.191Z,99906.14
2019-05-10T05:46:15.752Z,99907.80
2019-05-10T05:48:44.285Z,99910.82
2019-05-10T05:51:12.818Z,99911.75
2019-05-10T05:53:42.853Z,99915.48
2019-05-10T05:56:14.136Z,99911.78
2019-05-10T05:58:44.695Z,99912.05
2019-05-10T06:01:24.390Z,99910.39
2019-05-10T06:03:45.859Z,99916.16
2019-05-10T06:06:21.248Z,99911.57
2019-05-10T06:08:44.746Z,99911.98
2019-05-10T06:11:13.268Z,99919.89
2019-05-10T06:13:42.096Z,99923.00
2019-05-10T06:16:13.209Z,99924.91
2019-05-10T06:18:41.526Z,99932.92
2019-05-10T06:21:11.177Z,99937.62
2019-05-10T06:23:39.726Z,99932.33
2019-05-10T06:26:21.030Z,99941.22
2019-05-10T06:31:09.124Z,99938.84
2019-05-10T06:33:39.756Z,99942.36
2019-05-10T06:36:08.091Z,99942.88
2019-05-10T06:38:36.699Z,99944.02
2019-05-10T06:41:10.297Z,99940.63
2019-05-10T06:43:35.658Z,99942.22
2019-05-10T06:46:04.371Z,99950.27
2019-05-10T06:48:34.437Z,99945.03
2019-05-10T06:51:09.256Z,99951.42
2019-05-10T06:53:34.924Z,99953.05
2019-05-10T06:56:03.558Z,99962.41
2019-05-10T06:58:36.352Z,99957.53
2019-05-10T07:01:05.272Z,99955.06
2019-05-10T07:03:33.785Z,99957.39
2019-05-10T07:06:02.635Z,99962.28
2019-05-10T07:08:43.714Z,99958.02
2019-05-10T07:11:03.556Z,99964.04
2019-05-10T07:13:32.405Z,99968.05
2019-05-10T07:16:01.852Z,99966.86
2019-05-10T07:18:30.950Z,99968.84
2019-05-10T07:21:00.830Z,99964.53
2019-05-10T07:23:47.744Z,99963.45
2019-05-10T07:26:17.630Z,99975.42
2019-05-10T07:28:51.953Z,99975.14
2019-05-10T07:31:17.139Z,99970.66
2019-05-10T07:33:45.697Z,99975.80
2019-05-10T07:36:15.564Z,99971.20
2019-05-10T07:38:44.676Z,99979.95
2019-05-10T07:41:13.203Z,99977.20
2019-05-10T07:43:41.794Z,99982.72
2019-05-10T07:46:10.416Z,99981.14
2019-05-10T07:48:41.354Z,99987.42
2019-05-10T07:51:09.199Z,99985.57
2019-05-10T07:53:37.802Z,99987.83
2019-05-10T07:56:07.868Z,99996.80
2019-05-10T07:58:38.343Z,99999.09
2019-05-10T08:01:06.896Z,100000.05
2019-05-10T08:03:40.501Z,100005.17
2019-05-10T08:06:08.215Z,100008.08
2019-05-10T08:08:38.900Z,100016.24
2019-05-10T08:11:08.591Z,100018.68
2019-05-10T08:13:39.317Z,100017.83
2019-05-10T08:16:11.858Z,100014.59
2019-05-10T08:18:42.032Z,100016.55
2019-05-10T08:21:20.933Z,100020.83
2019-05-10T08:23:41.070Z,100030.63
2019-05-10T08:26:11.067Z,100037.19
2019-05-10T08:28:44.439Z,100037.41
2019-05-10T08:31:12.406Z,100040.89
2019-05-10T08:33:46.289Z,100043.48
2019-05-10T08:36:12.127Z,100043.75
2019-05-10T08:38:46.205Z,100044.86
2019-05-10T08:41:16.508Z,100044.14
2019-05-10T08:43:43.017Z,100039.12
2019-05-10T08:46:12.199Z,100042.92
2019-05-10T08:48:46.724Z,100049.16
2019-05-10T08:51:12.508Z,100044.73
2019-05-10T08:53:42.088Z,100044.25
2019-05-10T08:56:15.938Z,100046.50
2019-05-10T08:58:42.210Z,100052.15
2019-05-10T09:01:20.840Z,100050.23
2019-05-10T09:03:42.023Z,100054.66
2019-05-10T09:06:14.321Z,100055.72
2019-05-10T09:08:43.194Z,100061.45
2019-05-10T09:11:11.568Z,100057.63
2019-05-10T09:13:42.636Z,100063.25
2019-05-10T09:16:10.550Z,100065.87
2019-05-10T09:18:46.187Z,100064.80
2019-05-10T09:21:13.551Z,100066.11
2019-05-10T09:23:39.756Z,100066.71
2019-05-10T09:26:15.995Z,100071.61
2019-05-10T09:28:42.168Z,100075.23
2019-05-10T09:31:18.657Z,100080.17
2019-05-10T09:33:49.148Z,100083.45
2019-05-10T09:36:12.444Z,100083.48
2019-05-10T09:38:45.722Z,100089.56
2019-05-10T09:41:12.035Z,100091.18
2019-05-10T09:43:48.369Z,100092.77
2019-05-10T09:46:11.465Z,100095.55
2019-05-10T09:48:44.670Z,100099.79
2019-05-10T09:51:13.764Z,100096.96
2019-05-10T09:53:41.813Z,100092.16
2019-05-10T09:56:10.426Z,100099.94
2019-05-10T09:58:39.002Z,100098.98
2019-05-10T10:01:14.817Z,100094.92
2019-05-10T10:03:43.066Z,100087.85
2019-05-10T10:06:11.165Z,100090.53
2019-05-10T10:08:43.567Z,100090.26
2019-05-10T10:11:15.121Z,100091.72
2019-05-10T10:13:43.529Z,100099.23
2019-05-10T10:16:14.487Z,100100.06
2019-05-10T10:18:40.241Z,100110.17
2019-05-10T10:21:10.374Z,100104.92
2019-05-10T10:23:39.608Z,100114.33
2019-05-10T10:26:12.765Z,100119.34
2019-05-10T10:28:39.713Z,100117.48
2019-05-10T10:31:08.854Z,100119.13
2019-05-10T10:33:38.118Z,100122.32
2019-05-10T10:36:09.940Z,100127.88
2019-05-10T10:38:45.444Z,100131.63
2019-05-10T10:41:08.318Z,100131.05
2019-05-10T10:43:37.368Z,100129.92
2019-05-10T10:46:12.097Z,100134.23
2019-05-10T10:48:36.980Z,100134.84
2019-05-10T10:51:08.087Z,100140.38
2019-05-10T10:53:36.237Z,100139.02
2019-05-10T10:56:07.457Z,100142.97
2019-05-10T10:58:35.125Z,100136.36
2019-05-10T11:01:10.796Z,100140.10
2019-05-10T11:03:33.950Z,100148.47
2019-05-10T11:06:05.552Z,100147.30
2019-05-10T11:08:34.104Z,100147.78
2019-05-10T11:11:05.628Z,100152.08
2019-05-10T11:13:44.110Z,100147.41
2019-05-10T11:16:10.872Z,100147.43
2019-05-10T11:18:34.793Z,100143.62
2019-05-10T11:21:06.086Z,100160.87
2019-05-10T11:23:39.085Z,100149.90
2019-05-10T11:26:05.088Z,100151.39
2019-05-10T11:28:38.656Z,100163.50
2019-05-10T11:31:03.877Z,100157.14
2019-05-10T11:33:35.941Z,100160.13
2019-05-10T11:36:08.629Z,100173.00
2019-05-10T11:38:35.122Z,100163.91
2019-05-10T11:41:07.059Z,100165.20
2019-05-10T11:43:34.415Z,100164.91
2019-05-10T11:46:04.628Z,100165.00
2019-05-10T11:48:37.382Z,100169.77
2019-05-10T11:51:12.276Z,100171.55
2019-05-10T11:53:36.908Z,100168.41
2019-05-10T11:56:07.794Z,100176.61
2019-05-10T12:03:36.798Z,100178.88
2019-05-10T12:06:08.990Z,100202.75
2019-05-10T12:08:36.128Z,100197.97
2019-05-10T12:11:18.099Z,100197.28
2019-05-10T12:13:35.286Z,100197.97
2019-05-10T12:16:03.885Z,100201.69
2019-05-10T12:18:36.288Z,100200.39
2019-05-10T12:21:09.606Z,100206.42
2019-05-10T12:23:45.806Z,100203.69
2019-05-10T12:26:05.895Z,100175.94
2019-05-10T12:26:19.490Z,100183.97
2019-05-10T12:28:36.590Z,100206.00
2019-05-10T12:31:07.591Z,100202.44
2019-05-10T12:33:35.951Z,100206.57
2019-05-10T12:36:04.678Z,100208.11
2019-05-10T12:38:38.427Z,100209.87
2019-05-10T12:41:07.553Z,100206.95
2019-05-10T12:43:36.105Z,100210.73
2019-05-10T12:46:04.804Z,100219.47
2019-05-10T12:48:35.946Z,100225.48
2019-05-10T12:51:08.261Z,100223.64
2019-05-10T12:53:47.870Z,100230.35
2019-05-10T12:56:13.498Z,100237.33
2019-05-10T12:58:42.090Z,100249.22
2019-05-10T13:01:10.733Z,100258.66
2019-05-10T13:03:39.341Z,100256.00
2019-05-10T13:06:07.894Z,100259.00
2019-05-10T13:08:36.469Z,100268.11
2019-05-10T13:11:05.267Z,100263.78
2019-05-10T13:13:33.904Z,100272.03
2019-05-10T13:16:10.011Z,100277.38
2019-05-10T13:18:49.930Z,100275.38
2019-05-10T13:21:07.789Z,100275.73
2019-05-10T13:23:35.871Z,100284.23
2019-05-10T13:26:04.589Z,100285.22
2019-05-10T13:28:36.481Z,100278.92
2019-05-10T13:31:07.130Z,100287.89
2019-05-10T13:33:42.111Z,100284.37
2019-05-10T13:36:06.511Z,100283.56
2019-05-10T13:38:36.893Z,100292.00
2019-05-10T13:41:05.460Z,100279.11
2019-05-10T13:43:34.081Z,100294.72
2019-05-10T13:46:02.637Z,100292.26
2019-05-10T13:48:32.807Z,100291.67
2019-05-10T13:51:02.974Z,100293.59
2019-05-10T13:53:31.603Z,100294.75
2019-05-10T13:56:00.217Z,100289.16
2019-05-10T13:58:28.750Z,100285.15
2019-05-10T14:00:57.567Z,100283.48
2019-05-10T14:03:26.372Z,100277.66
2019-05-10T14:05:54.902Z,100279.56
2019-05-10T14:08:23.511Z,100286.44
2019-05-10T14:10:55.892Z,100284.64
2019-05-10T14:13:22.792Z,100279.59
2019-05-10T14:15:51.404Z,100280.41
2019-05-10T14:18:19.938Z,100280.47
2019-05-10T14:20:48.465Z,100280.46
2019-05-10T14:23:17.971Z,100288.29
2019-05-10T14:25:46.682Z,100293.66
2019-05-10T14:28:17.303Z,100281.30
2019-05-10T14:30:46.895Z,100287.38
2019-05-10T14:33:17.276Z,100285.31
2019-05-10T14:35:46.235Z,100290.45
2019-05-10T14:38:14.861Z,100291.09
2019-05-10T14:40:43.392Z,100291.67
2019-05-10T14:43:12.087Z,100298.55
2019-05-10T14:45:40.710Z,100294.14
2019-05-10T14:48:09.262Z,100294.78
2019-05-10T14:50:37.827Z,100295.20
2019-05-10T14:53:06.437Z,100295.70
2019-05-10T14:55:36.828Z,100301.31
2019-05-10T14:58:05.307Z,100297.87
2019-05-10T15:00:33.900Z,100305.89
2019-05-10T15:03:05.734Z,100297.33
2019-05-10T15:05:36.332Z,100301.34
2019-05-10T15:08:04.610Z,100300.17
2019-05-10T15:10:39.625Z,100303.24
2019-05-10T15:13:06.458Z,100298.39
2019-05-10T15:15:37.132Z,100304.95
2019-05-10T15:18:05.410Z,100305.33
2019-05-10T15:20:35.991Z,100308.92
2019-05-10T15:23:04.399Z,100303.53
2019-05-10T15:25:34.538Z,100307.17
2019-05-10T15:28:05.810Z,100316.50
2019-05-10T15:30:39.322Z,100315.00
2019-05-10T15:33:05.042Z,100312.36
2019-05-10T15:35:33.857Z,100318.59
2019-05-10T15:38:05.152Z,100319.05
2019-05-10T15:40:38.615Z,100318.31
2019-05-10T15:43:04.043Z,100317.66
2019-05-10T15:45:32.570Z,100319.79
2019-05-10T15:48:04.492Z,100321.99
2019-05-10T15:50:38.477Z,100331.34
2019-05-10T15:53:06.316Z,100323.95
2019-05-10T15:55:35.041Z,100332.48
2019-05-10T15:58:03.611Z,100332.56
2019-05-10T16:00:39.626Z,100339.50
2019-05-10T16:03:04.355Z,100342.03
2019-05-10T16:05:42.965Z,100350.40
2019-05-10T16:08:04.684Z,100365.41
2019-05-10T16:10:39.540Z,100385.83
2019-05-10T16:13:03.574Z,100393.67
2019-05-10T16:15:33.696Z,100402.16
2019-05-10T16:18:03.725Z,100389.75
2019-05-10T16:20:37.387Z,100384.48
2019-05-10T16:23:08.737Z,100390.73
2019-05-10T16:25:41.224Z,100391.94
2019-05-10T16:28:06.610Z,100396.28
2019-05-10T16:30:36.565Z,100411.00
2019-05-10T16:33:09.581Z,100420.29
2019-05-10T16:35:38.911Z,100426.55
2019-05-10T16:38:05.827Z,100425.01
2019-05-10T16:40:34.417Z,100428.19
2019-05-10T16:43:06.999Z,100426.19
2019-05-10T16:45:35.152Z,100425.11
2019-05-10T16:48:05.808Z,100427.58
2019-05-10T16:50:34.201Z,100430.20
2019-05-10T16:53:05.645Z,100426.76
2019-05-10T16:55:41.060Z,100437.20
2019-05-10T16:58:09.453Z,100444.34
2019-05-10T17:00:40.806Z,100440.20
2019-05-10T17:03:07.154Z,100439.72
2019-05-10T17:05:35.904Z,100449.36
2019-05-10T17:08:05.665Z,100445.76
2019-05-10T17:10:35.793Z,100448.38
2019-05-10T17:13:06.544Z,100447.47
2019-05-10T17:15:39.914Z,100456.05
2019-05-10T17:18:10.781Z,100454.17
2019-05-10T17:20:35.695Z,100459.88
2019-05-10T17:23:08.823Z,100465.34
2019-05-10T17:25:35.522Z,100468.63
2019-05-10T17:28:04.316Z,100468.26
2019-05-10T17:30:34.468Z,100468.83
2019-05-10T17:33:06.115Z,100471.63
2019-05-10T17:35:36.614Z,100469.61
2019-05-10T17:38:08.018Z,100466.79
2019-05-10T17:40:35.800Z,100482.47
2019-05-10T17:43:04.714Z,100487.13
2019-05-10T17:45:40.429Z,100492.67
2019-05-10T17:48:08.534Z,100497.78
2019-05-10T17:50:36.834Z,100499.38
2019-05-10T17:53:05.447Z,100501.16
2019-05-10T17:55:34.054Z,100500.70
2019-05-10T17:58:05.635Z,100509.83
2019-05-10T18:00:34.362Z,100508.05
2019-05-10T18:03:04.830Z,100520.12
2019-05-10T18:05:36.231Z,100514.52
2019-05-10T18:08:09.254Z,100523.64
2019-05-10T18:10:41.156Z,100521.09
2019-05-10T18:13:09.822Z,100523.49
2019-05-10T18:15:38.739Z,100533.10
2019-05-10T18:18:07.350Z,100531.05
2019-05-10T18:20:41.812Z,100532.07
2019-05-10T18:23:06.315Z,100534.69
2019-05-10T18:25:34.919Z,100543.00
2019-05-10T18:28:03.836Z,100540.37
2019-05-10T18:30:33.992Z,100544.59
2019-05-10T18:33:06.818Z,100553.58
2019-05-10T18:35:35.723Z,100552.28
2019-05-10T18:38:04.334Z,100551.73
2019-05-10T18:40:34.505Z,100553.56
2019-05-10T18:43:05.899Z,100551.27
2019-05-10T18:45:34.511Z,100557.56
2019-05-10T18:48:04.754Z,100559.09
2019-05-10T18:50:39.786Z,100567.99
2019-05-10T18:53:06.582Z,100572.91
2019-05-10T18:55:35.294Z,100579.92
2019-05-10T18:58:04.108Z,100580.17
2019-05-10T19:00:32.819Z,100583.61
2019-05-10T19:03:03.276Z,100590.24
2019-05-10T19:05:34.859Z,100595.48
2019-05-10T19:08:05.738Z,100600.13
2019-05-10T19:10:34.043Z,100604.60
2019-05-10T19:13:06.489Z,100601.09
2019-05-10T19:15:35.163Z,100604.42
2019-05-10T19:18:03.868Z,100603.78
2019-05-10T19:20:33.930Z,100603.97
2019-05-10T19:23:05.721Z,100606.91
2019-05-10T19:25:37.545Z,100607.40
2019-05-10T19:28:04.699Z,100612.42
2019-05-10T19:30:33.293Z,100619.45
2019-05-10T19:33:02.143Z,100618.45
2019-05-10T19:35:35.837Z,100622.44
2019-05-10T19:38:04.054Z,100624.00
2019-05-10T19:40:32.973Z,100636.37
2019-05-10T19:43:01.594Z,100632.92
2019-05-10T19:45:31.146Z,100641.16
2019-05-10T19:47:59.858Z,100643.12
2019-05-10T19:50:30.997Z,100641.89
2019-05-10T19:53:03.722Z,100641.81
2019-05-10T19:55:29.179Z,100641.92
2019-05-10T19:57:57.789Z,100647.59
2019-05-10T20:00:26.403Z,100651.64
2019-05-10T20:02:55.008Z,100653.98
2019-05-10T20:05:23.623Z,100653.14
2019-05-10T20:07:52.228Z,100656.05
2019-05-10T20:10:20.940Z,100658.53
2019-05-10T20:12:49.550Z,100656.38
2019-05-10T20:15:18.379Z,100658.64
2019-05-10T20:17:47.168Z,100656.61
2019-05-10T20:20:15.813Z,100668.84
2019-05-10T20:22:44.416Z,100666.70
2019-05-10T20:25:13.447Z,100659.25
2019-05-10T20:27:42.052Z,100659.95
2019-05-10T20:30:11.738Z,100663.12
2019-05-10T20:32:40.329Z,100671.58
2019-05-10T20:35:09.431Z,100673.11
2019-05-10T20:37:38.053Z,100664.66
2019-05-10T20:40:07.898Z,100668.56
2019-05-10T20:42:36.437Z,100670.69
2019-05-10T20:45:08.437Z,100673.45
2019-05-10T20:47:36.279Z,100668.70
2019-05-10T20:50:05.856Z,100669.31
2019-05-10T20:52:34.524Z,100664.06
2019-05-10T20:55:07.220Z,100668.02
2019-05-10T20:57:35.847Z,100673.94
2019-05-10T21:00:08.968Z,100669.73
2019-05-10T21:02:37.587Z,100673.98
2019-05-10T21:05:07.732Z,100675.91
2019-05-10T21:07:36.360Z,100683.72
2019-05-10T21:10:06.333Z,100681.19
2019-05-10T21:12:34.919Z,100681.27
2019-05-10T21:15:05.511Z,100682.41
2019-05-10T21:17:34.083Z,100679.34
2019-05-10T21:20:02.694Z,100683.02
2019-05-10T21:22:31.356Z,100682.83
2019-05-10T21:25:00.211Z,100679.31
2019-05-10T21:27:28.920Z,100675.45
2019-05-10T21:29:57.732Z,100675.06
2019-05-10T21:32:26.455Z,100674.52
2019-05-10T21:34:55.431Z,100678.88
2019-05-10T21:37:24.727Z,100687.81
2019-05-10T21:39:54.411Z,100683.71
2019-05-10T21:42:24.599Z,100682.02
2019-05-10T21:44:53.752Z,100680.07
2019-05-10T21:47:22.471Z,100675.55
2019-05-10T21:49:51.214Z,100673.42
2019-05-10T21:52:20.069Z,100677.39
2019-05-10T21:54:49.210Z,100684.73
2019-05-10T21:57:17.952Z,100689.77
2019-05-10T21:59:46.926Z,100685.50
2019-05-10T22:02:15.850Z,100675.66
2019-05-10T22:04:47.999Z,100682.31
2019-05-10T22:07:15.496Z,100681.30
2019-05-10T22:09:44.066Z,100686.33
2019-05-10T22:12:12.833Z,100688.70
2019-05-10T22:14:41.654Z,100690.28
2019-05-10T22:17:10.492Z,100693.56
2019-05-10T22:19:39.189Z,100693.70
2019-05-10T22:22:07.808Z,100693.42
2019-05-10T22:24:36.431Z,100703.60
2019-05-10T22:27:05.370Z,100703.73
2019-05-10T22:29:34.032Z,100701.13
2019-05-10T22:32:02.676Z,100706.55
2019-05-10T22:34:33.090Z,100713.59
2019-05-10T22:37:04.566Z,100710.33
2019-05-10T22:39:36.072Z,100713.52
2019-05-10T22:42:04.856Z,100713.69
2019-05-10T22:44:33.487Z,100713.45
2019-05-10T22:47:02.142Z,100717.81
2019-05-10T22:49:33.562Z,100719.50
2019-05-10T22:52:02.405Z,100725.14
2019-05-10T22:54:31.333Z,100727.83
2019-05-10T22:56:59.920Z,100727.53
2019-05-10T22:59:28.559Z,100731.11
2019-05-10T23:01:57.265Z,100740.48
2019-05-10T23:04:25.989Z,100741.65
2019-05-10T23:06:54.712Z,100743.47
2019-05-10T23:09:25.161Z,100743.07
2019-05-10T23:11:54.121Z,100749.34
2019-05-10T23:14:22.771Z,100751.39
2019-05-10T23:16:51.867Z,100744.34
2019-05-10T23:19:20.797Z,100748.69
2019-05-10T23:21:49.514Z,100745.81
2019-05-10T23:24:18.218Z,100743.89
2019-05-10T23:26:46.940Z,100744.36
2019-05-10T23:29:15.599Z,100740.41
2019-05-10T23:31:44.382Z,100748.34
2019-05-10T23:34:13.097Z,100754.22
2019-05-10T23:36:41.822Z,100754.14
2019-05-10T23:39:11.281Z,100747.88
2019-05-10T23:41:39.989Z,100753.34
2019-05-10T23:44:09.009Z,100760.64
2019-05-10T23:46:37.889Z,100766.56
2019-05-10T23:49:06.441Z,100768.42
2019-05-10T23:51:35.279Z,100763.68
2019-05-10T23:54:03.994Z,100757.93
2019-05-10T23:56:32.659Z,100754.31
2019-05-10T23:59:01.308Z,100751.45
